Time;durP1;ratioP1;P1;durP2;ratioP2;P2;SDS_P1;SDS_P2;PMS_P1;PMS_P2;Temp;Humidity;BMP_temperature;BMP_pressure;BME280_temperature;BME280_humidity;BME280_pressure;Samples;Min_cycle;Max_cycle;Signal;HPM_P1;HPM_P2
2022/09/25 00:00:13;;;;;;;;;;;;;;;12.68;84.82;101491.75;4965117;28;19914;-60
2022/09/25 00:02:38;;;;;;;;;;;;;;;12.68;84.74;101493.50;4964114;28;20004;-60
2022/09/25 00:05:03;;;;;;;;;;;;;;;12.66;84.78;101496.06;4964912;28;19976;-60
2022/09/25 00:07:28;;;;;;;;;;;;;;;12.65;84.80;101491.69;4964933;28;20294;-60
2022/09/25 00:09:53;;;;;;;;;;;;;;;12.63;84.72;101501.22;4965042;28;19918;-60
2022/09/25 00:12:19;;;;;;;;;;;;;;;12.63;84.77;101501.22;4964742;28;20009;-60
2022/09/25 00:14:48;;;;;;;;;;;;;;;12.62;84.75;101504.69;4965077;28;19922;-60
2022/09/25 00:17:13;;;;;;;;;;;;;;;12.60;84.80;101509.00;4965038;28;19922;-60
2022/09/25 00:19:51;;;;;;;;;;;;;;;12.60;84.74;101502.88;4963844;28;19914;-61
2022/09/25 00:22:17;;;;;;;;;;;;;;;12.60;84.80;101505.47;4964747;28;19914;-60
2022/09/25 00:24:42;;;;;;;;;;;;;;;12.58;84.71;101510.66;4965100;28;19981;-60
2022/09/25 00:27:07;;;;;;;;;;;;;;;12.56;84.59;101508.84;4965185;28;20008;-60
2022/09/25 00:29:35;;;;;;;;;;;;;;;12.54;84.50;101516.66;4966287;28;19914;-60
2022/09/25 00:32:00;;;;;;;;;;;;;;;12.53;84.53;101504.47;4963702;28;19922;-61
2022/09/25 00:34:25;;;;;;;;;;;;;;;12.53;84.49;101514.91;4979059;28;19983;-60
2022/09/25 00:36:50;;;;;;;;;;;;;;;12.50;84.47;101514.84;4971115;28;19914;-60
2022/09/25 00:39:15;;;;;;;;;;;;;;;12.48;84.59;101512.19;4964833;28;20617;-60
2022/09/25 00:41:41;;;;;;;;;;;;;;;12.47;84.62;101507.78;4964688;28;20012;-61
2022/09/25 00:44:26;;;;;;;;;;;;;;;12.46;84.48;101505.13;4977093;28;19922;-60
2022/09/25 00:46:51;;;;;;;;;;;;;;;12.45;84.57;101503.34;4989208;28;20000;-60
2022/09/25 00:49:18;;;;;;;;;;;;;;;12.45;84.42;101498.13;4981723;28;20021;-60
2022/09/25 00:51:56;;;;;;;;;;;;;;;12.41;84.54;101507.63;4977441;28;19920;-60
2022/09/25 00:54:24;;;;;;;;;;;;;;;12.41;84.49;101509.34;4966679;28;19914;-60
2022/09/25 00:56:51;;;;;;;;;;;;;;;12.40;84.45;101507.56;4976503;28;20403;-60
2022/09/25 00:59:18;;;;;;;;;;;;;;;12.39;84.51;101511.03;4981646;28;19918;-60
2022/09/25 01:01:44;;;;;;;;;;;;;;;12.39;84.44;101517.16;4977231;28;19968;-60
2022/09/25 01:04:11;;;;;;;;;;;;;;;12.37;84.51;101513.63;4988623;28;19917;-60
2022/09/25 01:06:37;;;;;;;;;;;;;;;12.35;84.41;101521.41;4976861;28;20013;-60
2022/09/25 01:09:02;;;;;;;;;;;;;;;12.34;84.33;101510.94;4980456;28;20004;-60
2022/09/25 01:11:29;;;;;;;;;;;;;;;12.31;84.48;101518.66;4975837;28;20305;-60
2022/09/25 01:13:55;;;;;;;;;;;;;;;12.29;84.33;101520.34;4972777;28;19925;-60
2022/09/25 01:16:39;;;;;;;;;;;;;;;12.27;84.38;101515.09;4972096;28;20096;-61
2022/09/25 01:19:04;;;;;;;;;;;;;;;12.25;84.41;101514.19;4978942;28;20004;-60
2022/09/25 01:21:36;;;;;;;;;;;;;;;12.23;84.27;101514.97;4971180;28;19992;-60
2022/09/25 01:24:31;;;;;;;;;;;;;;;12.20;84.43;101521.00;4973489;28;20376;-60
2022/09/25 01:27:31;;;;;;;;;;;;;;;12.21;84.22;101520.16;4962195;28;19925;-60
2022/09/25 01:30:03;;;;;;;;;;;;;;;12.18;84.20;101522.69;4909726;29;19981;-60
2022/09/25 01:32:48;;;;;;;;;;;;;;;12.18;84.36;101518.34;4955804;28;20130;-60
2022/09/25 01:35:22;;;;;;;;;;;;;;;12.16;84.25;101520.00;4961756;28;19964;-60
2022/09/25 01:37:50;;;;;;;;;;;;;;;12.14;84.14;101519.09;4963202;28;19949;-61
2022/09/25 01:40:19;;;;;;;;;;;;;;;12.14;84.24;101528.66;4970990;28;19914;-60
2022/09/25 01:42:51;;;;;;;;;;;;;;;12.10;84.05;101522.44;4974826;28;19914;-60
2022/09/25 01:45:28;;;;;;;;;;;;;;;12.05;83.84;101521.44;4967514;28;19922;-60
2022/09/25 01:47:55;;;;;;;;;;;;;;;12.05;83.93;101531.00;4973453;28;20004;-60
2022/09/25 01:50:28;;;;;;;;;;;;;;;12.02;84.11;101531.81;4965287;28;20009;-60
2022/09/25 01:52:55;;;;;;;;;;;;;;;11.99;83.93;101526.47;4962128;28;20444;-60
2022/09/25 01:55:31;;;;;;;;;;;;;;;11.98;84.09;101535.19;4964535;28;19918;-60
2022/09/25 01:58:07;;;;;;;;;;;;;;;11.95;83.96;101535.09;4964822;28;19929;-60
2022/09/25 02:00:35;;;;;;;;;;;;;;;11.94;83.91;101538.53;4961462;28;19922;-60
2022/09/25 02:03:07;;;;;;;;;;;;;;;11.91;83.92;101534.06;4962592;28;19941;-60
2022/09/25 02:05:38;;;;;;;;;;;;;;;11.89;83.71;101530.53;4962187;28;19929;-60
2022/09/25 02:08:06;;;;;;;;;;;;;;;11.88;83.74;101528.75;4962913;28;19918;-60
2022/09/25 02:10:34;;;;;;;;;;;;;;;11.87;83.60;101536.56;4959052;28;20640;-60
2022/09/25 02:13:03;;;;;;;;;;;;;;;11.82;83.48;101532.06;4967460;28;20037;-60
2022/09/25 02:15:29;;;;;;;;;;;;;;;11.80;83.52;101531.16;4966041;28;19918;-60
2022/09/25 02:20:45;;;;;;;;;;;;;;;11.77;83.56;101530.16;4968979;28;19921;-60
2022/09/25 02:23:13;;;;;;;;;;;;;;;11.74;83.26;101525.72;4967037;28;19918;-60
2022/09/25 02:25:45;;;;;;;;;;;;;;;11.71;83.34;101525.66;4966739;28;19973;-60
2022/09/25 02:28:10;;;;;;;;;;;;;;;11.70;83.04;101523.00;4971698;28;19922;-59
2022/09/25 02:30:35;;;;;;;;;;;;;;;11.65;83.06;101522.84;4966355;28;19968;-59
2022/09/25 02:33:00;;;;;;;;;;;;;;;11.63;83.03;101521.94;4966356;28;20476;-59
2022/09/25 02:35:25;;;;;;;;;;;;;;;11.61;83.07;101529.69;4966438;28;20418;-59
2022/09/25 02:37:52;;;;;;;;;;;;;;;11.59;83.09;101525.28;4965736;28;19914;-59
2022/09/25 02:40:19;;;;;;;;;;;;;;;11.56;83.09;101526.06;4966576;28;19922;-59
2022/09/25 02:42:44;;;;;;;;;;;;;;;11.54;83.08;101522.50;4968225;28;19914;-59
2022/09/25 02:45:28;;;;;;;;;;;;;;;11.51;82.90;101522.44;4972017;28;20483;-59
2022/09/25 02:48:11;;;;;;;;;;;;;;;11.47;82.79;101526.69;4966239;28;20403;-59
2022/09/25 02:50:46;;;;;;;;;;;;;;;11.43;82.75;101532.63;4966033;28;19925;-59
2022/09/25 02:53:11;;;;;;;;;;;;;;;11.39;82.74;101528.16;4964997;28;19914;-59
2022/09/25 02:55:55;;;;;;;;;;;;;;;11.37;82.61;101527.22;4966957;28;19948;-59
2022/09/25 02:58:24;;;;;;;;;;;;;;;11.34;82.51;101515.81;4966807;28;19968;-60
2022/09/25 03:00:51;;;;;;;;;;;;;;;11.30;82.49;101507.88;4966062;28;20417;-60
2022/09/25 03:03:18;;;;;;;;;;;;;;;11.27;82.72;101506.91;4965934;28;20012;-60
2022/09/25 03:05:45;;;;;;;;;;;;;;;11.24;82.37;101497.25;4964344;28;19992;-60
2022/09/25 03:10:53;;;;;;;;;;;;;;;11.19;82.38;101509.25;4985644;28;19928;-60
2022/09/25 03:13:21;;;;;;;;;;;;;;;11.17;82.37;101510.06;4984219;28;19917;-60
2022/09/25 03:15:50;;;;;;;;;;;;;;;11.13;82.25;101514.28;4979103;28;20392;-60
2022/09/25 03:18:15;;;;;;;;;;;;;;;11.10;82.23;101512.47;4982326;28;19913;-60
2022/09/25 03:20:41;;;;;;;;;;;;;;;11.06;82.26;101510.59;4987500;28;19943;-60
2022/09/25 03:23:06;;;;;;;;;;;;;;;11.03;82.31;101514.84;4981410;28;20286;-60
2022/09/25 03:25:32;;;;;;;;;;;;;;;11.01;82.07;101519.09;4993780;28;19914;-60
2022/09/25 03:27:57;;;;;;;;;;;;;;;10.98;82.16;101521.59;4985093;28;19971;-59
2022/09/25 03:30:23;;;;;;;;;;;;;;;10.95;82.35;101514.59;4994008;28;20284;-59
2022/09/25 03:32:48;;;;;;;;;;;;;;;10.91;82.11;101517.94;4982809;28;20398;-59
2022/09/25 03:35:13;;;;;;;;;;;;;;;10.88;82.21;101523.06;4989040;28;19996;-59
2022/09/25 03:37:38;;;;;;;;;;;;;;;10.84;82.04;101522.03;4978474;28;19914;-59
2022/09/25 03:40:04;;;;;;;;;;;;;;;10.82;82.29;101520.22;4980868;28;20049;-59
2022/09/25 03:42:30;;;;;;;;;;;;;;;10.80;82.41;101517.56;4973059;28;20369;-59
2022/09/25 03:44:55;;;;;;;;;;;;;;;10.78;82.35;101512.28;4981517;28;20378;-59
2022/09/25 03:47:20;;;;;;;;;;;;;;;10.75;82.30;101517.41;4971573;28;19953;-59
2022/09/25 03:49:46;;;;;;;;;;;;;;;10.72;82.44;101517.31;4987761;28;19916;-59
2022/09/25 03:52:12;;;;;;;;;;;;;;;10.71;82.35;101515.53;4981647;28;20445;-59
2022/09/25 03:54:37;;;;;;;;;;;;;;;10.69;82.16;101511.09;4976298;28;19984;-59
2022/09/25 03:57:02;;;;;;;;;;;;;;;10.66;82.34;101517.13;4975378;28;20400;-59
2022/09/25 03:59:28;;;;;;;;;;;;;;;10.64;82.29;101513.53;4973031;28;19972;-59
2022/09/25 04:01:53;;;;;;;;;;;;;;;10.63;82.46;101516.09;4981712;28;19918;-59
2022/09/25 04:04:18;;;;;;;;;;;;;;;10.60;82.41;101517.78;4986004;28;19922;-59
2022/09/25 04:06:44;;;;;;;;;;;;;;;10.57;82.43;101512.47;4972822;28;19996;-59
2022/09/25 04:09:10;;;;;;;;;;;;;;;10.55;82.40;101514.13;4973476;28;19965;-59
2022/09/25 04:11:36;;;;;;;;;;;;;;;10.53;82.43;101521.00;4974913;28;20309;-59
2022/09/25 04:14:02;;;;;;;;;;;;;;;10.50;82.42;101515.69;4984922;28;19918;-59
2022/09/25 04:16:28;;;;;;;;;;;;;;;10.47;82.43;101509.47;4977087;28;19918;-59
2022/09/25 04:18:53;;;;;;;;;;;;;;;10.45;82.52;101514.63;4985728;28;19913;-59
2022/09/25 04:21:18;;;;;;;;;;;;;;;10.43;82.58;101514.59;4989032;28;19918;-59
2022/09/25 04:24:47;;;;;;;;;;;;;;;10.41;82.44;101510.16;4978119;28;19914;-59
2022/09/25 04:26:29;;;;;;;;;;;;;;;10.37;82.31;101509.16;4986554;28;20366;-59
2022/09/25 04:28:54;;;;;;;;;;;;;;;10.35;82.25;101504.72;4975386;28;19914;-58
2022/09/25 04:31:19;;;;;;;;;;;;;;;10.32;82.61;101507.19;4984111;28;19913;-59
2022/09/25 04:33:45;;;;;;;;;;;;;;;10.30;82.52;101512.34;4977027;28;19914;-59
2022/09/25 04:36:10;;;;;;;;;;;;;;;10.27;82.65;101518.34;4975687;28;20341;-59
2022/09/25 04:38:35;;;;;;;;;;;;;;;10.24;82.55;101513.03;4975737;28;19914;-59
2022/09/25 04:41:01;;;;;;;;;;;;;;;10.22;82.78;101514.66;4972794;28;19910;-59
2022/09/25 04:43:28;;;;;;;;;;;;;;;10.21;82.44;101522.44;4967920;28;19914;-59
2022/09/25 04:45:53;;;;;;;;;;;;;;;10.17;82.73;101513.63;4966593;28;19922;-59
2022/09/25 04:48:18;;;;;;;;;;;;;;;10.15;82.60;101507.47;4963432;28;19925;-59
2022/09/25 04:50:50;;;;;;;;;;;;;;;10.14;82.68;101505.72;4963979;28;20444;-59
2022/09/25 04:53:15;;;;;;;;;;;;;;;10.13;82.78;101505.66;4963514;28;19928;-59
2022/09/25 04:55:40;;;;;;;;;;;;;;;10.10;82.70;101507.31;4964616;28;19996;-59
2022/09/25 04:58:06;;;;;;;;;;;;;;;10.08;82.63;101508.09;4964732;28;20049;-59
2022/09/25 05:00:31;;;;;;;;;;;;;;;10.05;82.68;101508.88;4966395;28;20418;-59
2022/09/25 05:02:57;;;;;;;;;;;;;;;10.03;82.54;101502.72;4964171;28;19964;-59
2022/09/25 05:05:27;;;;;;;;;;;;;;;10.02;82.51;101510.47;4962531;28;19918;-59
2022/09/25 05:07:53;;;;;;;;;;;;;;;10.00;82.62;101501.72;4963254;28;20176;-60
2022/09/25 05:10:19;;;;;;;;;;;;;;;9.99;82.77;101499.94;4963200;28;20003;-60
2022/09/25 05:12:44;;;;;;;;;;;;;;;9.97;82.47;101509.44;4965543;28;20000;-60
2022/09/25 05:15:10;;;;;;;;;;;;;;;9.95;82.50;101498.97;4962924;28;20387;-60
2022/09/25 05:17:35;;;;;;;;;;;;;;;9.95;82.63;101495.44;4964343;28;19918;-60
2022/09/25 05:20:02;;;;;;;;;;;;;;;9.92;82.70;101496.22;4963473;28;19918;-60
2022/09/25 05:22:27;;;;;;;;;;;;;;;9.91;82.77;101503.16;4962648;28;19926;-60
2022/09/25 05:24:52;;;;;;;;;;;;;;;9.89;82.57;101499.63;4967832;28;20357;-60
2022/09/25 05:27:17;;;;;;;;;;;;;;;9.87;82.66;101501.25;4964197;28;20024;-60
2022/09/25 05:29:43;;;;;;;;;;;;;;;9.86;82.90;101499.50;4964615;28;19921;-60
2022/09/25 05:32:08;;;;;;;;;;;;;;;9.84;82.73;101495.06;4964369;28;19913;-60
2022/09/25 05:34:33;;;;;;;;;;;;;;;9.82;82.83;101500.22;4965844;28;19917;-60
2022/09/25 05:36:58;;;;;;;;;;;;;;;9.81;82.97;101494.97;4979768;28;20506;-60
2022/09/25 05:39:24;;;;;;;;;;;;;;;9.80;83.10;101500.97;4975624;28;19910;-60
2022/09/25 05:41:49;;;;;;;;;;;;;;;9.79;83.15;101500.09;4974884;28;19914;-60
2022/09/25 05:44:14;;;;;;;;;;;;;;;9.78;83.12;101502.66;4982367;28;19921;-60
2022/09/25 05:46:39;;;;;;;;;;;;;;;9.78;83.19;101505.25;4979054;28;19913;-60
2022/09/25 05:49:04;;;;;;;;;;;;;;;9.75;83.12;101506.03;4982700;28;19913;-60
2022/09/25 05:51:30;;;;;;;;;;;;;;;9.76;83.21;101510.38;4976754;28;19921;-60
2022/09/25 05:53:55;;;;;;;;;;;;;;;9.74;83.17;101504.25;4974863;28;19914;-60
2022/09/25 05:56:23;;;;;;;;;;;;;;;9.74;83.14;101512.91;4977406;28;20298;-60
2022/09/25 05:58:49;;;;;;;;;;;;;;;9.73;83.24;101507.66;4986383;28;19920;-60
2022/09/25 06:01:14;;;;;;;;;;;;;;;9.72;83.24;101522.41;4982056;28;19914;-60
2022/09/25 06:03:39;;;;;;;;;;;;;;;9.72;83.23;101517.19;4980965;28;20184;-60
2022/09/25 06:06:05;;;;;;;;;;;;;;;9.71;83.25;101522.34;4967938;28;19918;-60
2022/09/25 06:08:30;;;;;;;;;;;;;;;9.72;83.39;101521.53;4973268;28;20363;-60
2022/09/25 06:10:57;;;;;;;;;;;;;;;9.70;83.38;101525.78;4970806;28;19928;-60
2022/09/25 06:13:24;;;;;;;;;;;;;;;9.69;83.60;101519.69;4975687;28;19961;-60
2022/09/25 06:15:51;;;;;;;;;;;;;;;9.70;83.44;101517.97;4978291;28;19953;-60
2022/09/25 06:18:17;;;;;;;;;;;;;;;9.70;83.52;101523.16;4969169;28;19964;-60
2022/09/25 06:20:42;;;;;;;;;;;;;;;9.70;83.59;101516.25;4977004;28;19949;-60
2022/09/25 06:23:07;;;;;;;;;;;;;;;9.69;83.65;101521.38;4975199;28;20004;-60
2022/09/25 06:25:32;;;;;;;;;;;;;;;9.68;83.53;101522.22;4991083;28;20296;-60
2022/09/25 06:27:59;;;;;;;;;;;;;;;9.68;83.81;101522.22;4979636;28;19917;-60
2022/09/25 06:30:27;;;;;;;;;;;;;;;9.69;83.70;101516.19;4984438;28;20358;-60
2022/09/25 06:32:58;;;;;;;;;;;;;;;9.67;83.97;101517.84;4984865;28;19916;-60
2022/09/25 06:35:24;;;;;;;;;;;;;;;9.68;83.88;101522.22;4976059;28;19918;-60
2022/09/25 06:37:49;;;;;;;;;;;;;;;9.68;83.95;101525.72;4967291;28;19920;-59
2022/09/25 06:40:15;;;;;;;;;;;;;;;9.67;84.20;101523.94;4965351;28;20290;-59
2022/09/25 06:42:40;;;;;;;;;;;;;;;9.68;84.16;101519.63;4970193;28;19914;-59
2022/09/25 06:45:06;;;;;;;;;;;;;;;9.69;84.10;101524.91;4972115;28;19918;-59
2022/09/25 06:47:31;;;;;;;;;;;;;;;9.70;84.15;101523.16;4981147;28;19918;-58
2022/09/25 06:49:56;;;;;;;;;;;;;;;9.69;84.40;101523.97;4970568;28;20353;-59
2022/09/25 06:52:22;;;;;;;;;;;;;;;9.70;84.32;101528.38;4972532;28;19914;-59
2022/09/25 06:54:47;;;;;;;;;;;;;;;9.71;84.50;101530.16;4974013;28;20332;-59
2022/09/25 06:57:12;;;;;;;;;;;;;;;9.71;84.49;101535.34;4985499;28;20448;-59
2022/09/25 06:59:37;;;;;;;;;;;;;;;9.71;84.64;101535.34;4981415;28;19917;-59
2022/09/25 07:04:50;;;;;;;;;;;;;;;9.73;85.05;101531.09;4977383;28;20501;-59
2022/09/25 07:07:19;;;;;;;;;;;;;;;9.77;85.24;101534.72;4973245;28;19914;-59
2022/09/25 07:09:47;;;;;;;;;;;;;;;9.76;85.59;101533.78;4963979;28;19920;-59
2022/09/25 07:12:12;;;;;;;;;;;;;;;9.78;85.47;101537.38;4976544;28;19944;-59
2022/09/25 07:14:37;;;;;;;;;;;;;;;9.79;85.86;101541.75;4971132;28;19956;-59
2022/09/25 07:17:03;;;;;;;;;;;;;;;9.81;85.82;101536.59;4969668;28;19925;-59
2022/09/25 07:19:28;;;;;;;;;;;;;;;9.82;86.16;101541.88;4973795;28;20424;-59
2022/09/25 07:21:54;;;;;;;;;;;;;;;9.84;86.25;101537.59;4975037;28;19914;-59
2022/09/25 07:24:20;;;;;;;;;;;;;;;9.86;86.63;101541.16;4971911;28;19918;-59
2022/09/25 07:26:46;;;;;;;;;;;;;;;9.88;86.38;101549.91;4974213;28;19914;-59
2022/09/25 07:29:11;;;;;;;;;;;;;;;9.90;86.38;101543.00;4979612;28;19914;-59
2022/09/25 07:31:36;;;;;;;;;;;;;;;9.92;86.43;101546.59;4987113;28;19910;-58
2022/09/25 07:34:07;;;;;;;;;;;;;;;9.95;86.92;101543.22;4973764;28;20374;-59
2022/09/25 07:36:33;;;;;;;;;;;;;;;9.98;87.03;101551.13;4965586;28;19910;-59
2022/09/25 07:38:58;;;;;;;;;;;;;;;10.00;86.94;101553.78;4970222;28;19925;-59
2022/09/25 07:41:23;;;;;;;;;;;;;;;10.02;87.28;101553.03;4978475;28;19988;-59
2022/09/25 07:43:56;;;;;;;;;;;;;;;10.05;87.33;101547.94;4971924;28;19914;-59
2022/09/25 07:46:21;;;;;;;;;;;;;;;10.08;87.62;101553.25;4970068;28;20452;-60
2022/09/25 07:48:49;;;;;;;;;;;;;;;10.10;87.70;101535.06;4972127;28;19914;-60
2022/09/25 07:51:15;;;;;;;;;;;;;;;10.14;87.84;101541.25;4972201;28;19960;-60
2022/09/25 07:53:41;;;;;;;;;;;;;;;10.17;87.97;101542.28;4974172;28;20004;-60
2022/09/25 07:56:07;;;;;;;;;;;;;;;10.20;88.06;101536.31;4975293;28;19925;-60
2022/09/25 07:58:33;;;;;;;;;;;;;;;10.23;87.88;101532.06;4985086;28;20297;-60
2022/09/25 08:01:00;;;;;;;;;;;;;;;10.27;88.32;101536.56;4978689;28;20106;-60
2022/09/25 08:03:26;;;;;;;;;;;;;;;10.30;88.26;101537.50;4975942;28;19925;-60
2022/09/25 08:05:58;;;;;;;;;;;;;;;10.35;88.77;101538.59;4977613;28;19922;-60
2022/09/25 08:08:23;;;;;;;;;;;;;;;10.39;88.69;101535.28;4965891;28;19921;-60
2022/09/25 08:10:48;;;;;;;;;;;;;;;10.41;88.72;101533.59;4967816;28;19914;-60
2022/09/25 08:13:16;;;;;;;;;;;;;;;10.45;89.02;101527.66;4971448;28;19964;-60
2022/09/25 08:15:41;;;;;;;;;;;;;;;10.49;88.90;101539.09;4969172;28;19922;-60
2022/09/25 08:18:07;;;;;;;;;;;;;;;10.55;88.87;101539.31;4971630;28;19917;-58
2022/09/25 08:20:32;;;;;;;;;;;;;;;10.58;88.81;101524.66;4974370;28;19995;-59
2022/09/25 08:22:58;;;;;;;;;;;;;;;10.63;89.17;101526.53;4970717;28;19921;-60
2022/09/25 08:25:23;;;;;;;;;;;;;;;10.68;89.39;101532.78;4969268;28;19922;-59
2022/09/25 08:27:48;;;;;;;;;;;;;;;10.72;88.79;101526.88;4970785;28;20411;-59
2022/09/25 08:30:16;;;;;;;;;;;;;;;10.78;89.00;101527.06;4967003;28;19925;-59
2022/09/25 08:32:41;;;;;;;;;;;;;;;10.83;89.74;101524.59;4960479;28;20382;-57
2022/09/25 08:35:07;;;;;;;;;;;;;;;10.89;89.65;101525.72;4971249;28;19914;-57
2022/09/25 08:37:32;;;;;;;;;;;;;;;10.93;89.60;101532.78;4977793;28;20000;-58
2022/09/25 08:39:58;;;;;;;;;;;;;;;11.00;89.80;101533.88;4973591;28;20385;-57
2022/09/25 08:42:35;;;;;;;;;;;;;;;11.05;89.45;101536.63;4977997;28;19917;-58
2022/09/25 08:50:32;;;;;;;;;;;;;;;11.22;89.17;101534.56;4982587;28;20186;-59
2022/09/25 08:53:23;;;;;;;;;;;;;;;11.28;88.70;101537.38;4983591;28;19928;-60
2022/09/25 08:58:42;;;;;;;;;;;;;;;11.42;88.68;101545.63;4972186;28;19925;-59
2022/09/25 09:01:11;;;;;;;;;;;;;;;11.49;89.27;101534.56;4980814;28;19954;-59
2022/09/25 09:03:42;;;;;;;;;;;;;;;11.56;89.05;101536.50;4977485;28;20301;-59
2022/09/25 09:06:13;;;;;;;;;;;;;;;11.65;88.99;101530.69;4975367;28;19973;-60
2022/09/25 09:08:40;;;;;;;;;;;;;;;11.72;89.26;101534.38;4980925;28;20250;-60
2022/09/25 09:11:16;;;;;;;;;;;;;;;11.78;89.32;101524.97;4981953;28;19921;-59
2022/09/25 09:13:44;;;;;;;;;;;;;;;11.86;89.61;101526.94;4988521;28;19921;-60
2022/09/25 09:16:16;;;;;;;;;;;;;;;11.95;90.26;101535.97;4989563;28;20008;-60
2022/09/25 09:18:42;;;;;;;;;;;;;;;12.07;89.92;101529.34;4983415;28;20285;-59
2022/09/25 09:21:12;;;;;;;;;;;;;;;12.14;89.86;101516.47;4988711;28;19917;-59
2022/09/25 09:23:53;;;;;;;;;;;;;;;12.25;89.47;101516.78;4981548;28;20412;-59
2022/09/25 09:26:20;;;;;;;;;;;;;;;12.34;89.40;101532.72;4980856;28;20297;-59
2022/09/25 09:28:48;;;;;;;;;;;;;;;12.47;89.64;101517.34;4981153;28;19914;-60
2022/09/25 09:31:31;;;;;;;;;;;;;;;12.58;89.49;101522.88;4990851;28;19910;-59
2022/09/25 09:33:57;;;;;;;;;;;;;;;12.69;89.55;101517.06;4974739;28;19947;-59
2022/09/25 09:36:22;;;;;;;;;;;;;;;12.82;89.31;101522.63;4983428;28;19921;-60
2022/09/25 09:39:10;;;;;;;;;;;;;;;12.95;88.84;101522.06;4984606;28;20420;-59
2022/09/25 09:41:43;;;;;;;;;;;;;;;13.09;88.98;101525.00;4967789;28;19970;-60
2022/09/25 09:44:27;;;;;;;;;;;;;;;13.25;89.07;101518.41;4980316;28;19922;-60
2022/09/25 09:46:55;;;;;;;;;;;;;;;13.35;88.31;101517.84;4983477;28;19917;-60
2022/09/25 09:49:20;;;;;;;;;;;;;;;13.46;87.69;101514.56;4977431;28;19920;-60
2022/09/25 09:51:52;;;;;;;;;;;;;;;13.56;87.28;101514.81;4990218;28;19910;-60
2022/09/25 09:54:24;;;;;;;;;;;;;;;13.66;86.75;101518.50;4984863;28;20000;-60
2022/09/25 09:56:50;;;;;;;;;;;;;;;13.75;86.25;101515.22;4982472;28;20432;-60
2022/09/25 09:59:19;;;;;;;;;;;;;;;13.85;86.26;101508.44;4970615;28;20001;-60
2022/09/25 10:01:48;;;;;;;;;;;;;;;13.91;85.83;101506.81;4977169;28;19922;-59
2022/09/25 10:04:18;;;;;;;;;;;;;;;13.98;85.57;101501.72;4970457;28;19922;-59
2022/09/25 10:06:47;;;;;;;;;;;;;;;14.05;85.89;101504.47;4980442;28;19922;-59
2022/09/25 10:09:14;;;;;;;;;;;;;;;14.14;84.84;101502.91;4977141;28;19943;-59
2022/09/25 10:11:39;;;;;;;;;;;;;;;14.24;84.83;101496.97;4986827;28;19964;-60
2022/09/25 10:14:04;;;;;;;;;;;;;;;14.34;84.33;101491.03;4974839;28;19925;-60
2022/09/25 10:16:30;;;;;;;;;;;;;;;14.45;84.38;101491.22;4975255;28;20381;-60
2022/09/25 10:19:06;;;;;;;;;;;;;;;14.56;83.97;101494.94;4975699;28;20072;-59
2022/09/25 10:21:36;;;;;;;;;;;;;;;14.69;84.71;101495.19;4978554;28;19976;-60
2022/09/25 10:24:02;;;;;;;;;;;;;;;14.80;83.51;101490.13;4976869;28;19917;-59
2022/09/25 10:26:32;;;;;;;;;;;;;;;14.89;82.96;101499.03;4991709;28;20376;-60
2022/09/25 10:28:58;;;;;;;;;;;;;;;14.95;82.74;101490.38;4975912;28;19917;-60
2022/09/25 10:31:29;;;;;;;;;;;;;;;14.98;82.03;101485.16;4972428;28;19921;-60
2022/09/25 10:34:12;;;;;;;;;;;;;;;15.05;81.12;101492.28;4982235;28;20172;-59
2022/09/25 10:36:39;;;;;;;;;;;;;;;15.09;79.54;101486.22;4990040;28;19956;-60
2022/09/25 10:39:18;;;;;;;;;;;;;;;15.09;80.59;101491.47;4986793;28;19922;-60
2022/09/25 10:41:44;;;;;;;;;;;;;;;15.10;80.24;101487.97;4991043;28;20350;-60
2022/09/25 10:44:38;;;;;;;;;;;;;;;15.13;78.31;101485.41;4994551;28;20000;-60
2022/09/25 10:50:16;;;;;;;;;;;;;;;15.35;80.10;101488.34;4979796;28;19916;-60
2022/09/25 10:52:48;;;;;;;;;;;;;;;15.45;79.79;101487.63;4989928;28;20377;-60
2022/09/25 10:55:19;;;;;;;;;;;;;;;15.55;78.94;101487.72;4994205;28;20452;-60
2022/09/25 10:57:46;;;;;;;;;;;;;;;15.63;78.02;101476.47;4982354;28;19913;-60
2022/09/25 11:00:23;;;;;;;;;;;;;;;15.76;78.75;101485.38;4993284;28;19932;-60
2022/09/25 11:02:52;;;;;;;;;;;;;;;15.84;78.29;101484.63;4970695;28;19957;-60
2022/09/25 11:05:20;;;;;;;;;;;;;;;15.89;77.73;101488.19;4986597;28;20406;-60
2022/09/25 11:07:51;;;;;;;;;;;;;;;15.96;78.12;101482.13;4979872;28;20013;-60
2022/09/25 11:10:36;;;;;;;;;;;;;;;16.05;77.06;101478.72;4979163;28;19914;-59
2022/09/25 11:13:17;;;;;;;;;;;;;;;16.12;77.75;101477.94;4977579;28;19922;-60
2022/09/25 11:15:46;;;;;;;;;;;;;;;16.20;76.38;101481.53;4967186;28;19922;-60
2022/09/25 11:18:31;;;;;;;;;;;;;;;16.29;77.01;101478.13;4976080;28;19973;-58
2022/09/25 11:20:59;;;;;;;;;;;;;;;16.37;75.80;101475.59;4973108;28;19917;-58
2022/09/25 11:23:33;;;;;;;;;;;;;;;16.43;76.14;101487.03;4979448;28;19917;-59
2022/09/25 11:26:14;;;;;;;;;;;;;;;16.45;75.54;101485.31;4981066;28;20029;-58
2022/09/25 11:28:49;;;;;;;;;;;;;;;16.44;75.09;101478.28;4974574;28;19936;-58
2022/09/25 11:31:37;;;;;;;;;;;;;;;16.43;73.82;101479.13;4979279;28;19922;-59
2022/09/25 11:34:23;;;;;;;;;;;;;;;16.40;73.95;101480.88;4966092;28;20000;-58
2022/09/25 11:36:52;;;;;;;;;;;;;;;16.35;73.38;101475.53;4976508;28;19925;-58
2022/09/25 11:42:17;;;;;;;;;;;;;;;16.33;71.74;101470.25;4976284;28;19944;-58
2022/09/25 11:44:53;;;;;;;;;;;;;;;16.36;71.10;101464.16;4992069;28;20433;-58
2022/09/25 11:47:32;;;;;;;;;;;;;;;16.38;71.76;101457.19;4974462;28;20012;-60
2022/09/25 11:50:01;;;;;;;;;;;;;;;16.40;71.02;101452.81;4973017;28;20370;-59
2022/09/25 11:52:29;;;;;;;;;;;;;;;16.44;71.58;101451.09;4974587;28;19924;-60
2022/09/25 11:55:18;;;;;;;;;;;;;;;16.51;71.96;101452.88;4974687;28;19910;-60
2022/09/25 11:58:02;;;;;;;;;;;;;;;16.60;72.30;101449.50;4982851;28;19922;-60
2022/09/25 12:00:39;;;;;;;;;;;;;;;16.72;71.92;101446.06;4975647;28;20030;-59
2022/09/25 12:03:12;;;;;;;;;;;;;;;16.86;72.28;101444.44;4978243;28;19914;-60
2022/09/25 12:05:37;;;;;;;;;;;;;;;17.00;72.25;101441.91;4959132;28;19918;-60
2022/09/25 12:08:02;;;;;;;;;;;;;;;17.11;71.41;101436.72;4979086;28;20345;-60
2022/09/25 12:10:47;;;;;;;;;;;;;;;17.15;71.23;101431.47;4979212;28;19914;-59
2022/09/25 12:13:23;;;;;;;;;;;;;;;17.15;70.27;101434.13;4986436;28;20266;-60
2022/09/25 12:15:48;;;;;;;;;;;;;;;17.12;70.72;101436.72;4986098;28;19920;-60
2022/09/25 12:18:32;;;;;;;;;;;;;;;17.09;70.46;101438.44;4982760;28;19914;-60
2022/09/25 12:21:06;;;;;;;;;;;;;;;17.04;70.42;101427.91;4991217;28;19914;-60
2022/09/25 12:23:35;;;;;;;;;;;;;;;17.01;70.13;101438.41;4971289;28;21114;-60
2022/09/25 12:26:06;;;;;;;;;;;;;;;16.97;70.30;101431.34;4992187;28;20431;-60
2022/09/25 12:28:41;;;;;;;;;;;;;;;16.93;70.20;101430.47;4980448;28;19961;-60
2022/09/25 12:31:06;;;;;;;;;;;;;;;16.93;70.14;101426.94;4973413;28;19914;-60
2022/09/25 12:33:46;;;;;;;;;;;;;;;16.96;70.21;101424.31;4975361;28;19976;-60
2022/09/25 12:36:23;;;;;;;;;;;;;;;17.02;70.41;101421.75;4962049;28;19914;-59
2022/09/25 12:38:54;;;;;;;;;;;;;;;17.03;69.90;101407.69;4956425;28;19921;-60
2022/09/25 12:41:40;;;;;;;;;;;;;;;17.02;70.41;101413.84;4989623;28;20401;-60
2022/09/25 12:44:05;;;;;;;;;;;;;;;17.02;70.93;101408.59;4979481;28;19913;-60
2022/09/25 12:46:41;;;;;;;;;;;;;;;16.98;68.58;101415.56;4983681;28;19910;-58
2022/09/25 12:49:35;;;;;;;;;;;;;;;16.96;69.92;101412.06;4969136;28;19914;-59
2022/09/25 12:52:04;;;;;;;;;;;;;;;16.93;69.63;101419.03;4958736;28;20017;-58
2022/09/25 12:54:32;;;;;;;;;;;;;;;16.89;69.59;101417.25;4977939;28;19933;-58
2022/09/25 12:56:59;;;;;;;;;;;;;;;16.85;69.01;101409.31;4975248;28;20400;-58
2022/09/25 12:59:36;;;;;;;;;;;;;;;16.81;68.88;101410.16;4978078;28;19957;-58
2022/09/25 13:02:20;;;;;;;;;;;;;;;16.77;68.99;101408.41;4974920;28;19929;-58
2022/09/25 13:05:06;;;;;;;;;;;;;;;16.73;68.96;101403.97;4975284;28;19918;-58
2022/09/25 13:07:35;;;;;;;;;;;;;;;16.68;69.81;101403.94;4957241;28;19917;-58
2022/09/25 13:10:03;;;;;;;;;;;;;;;16.64;69.78;101403.88;4980547;28;19918;-58